Main page
METAR-TAF:

METAR-TAF

Airports :

La Nubia Airport

Manizales, Colombia

latitude: 05-01-48N, longitude: 075-27-50W, elevation: 2063 m

Current weather observation

The report was made 47 minutes ago, at 16:00 UTC
Wind 5 kt from the West/Northwest
Temperature 18°C
Humidity 88%
Pressure 1028 hPa
Visibility: 7000 m
Broken clouds at a height of 1500 ft
Broken clouds at a height of 4000 ft
fog in vicinity

METAR: SKMZ 281600Z 30005KT 7000 VCFG BKN015 BKN040 18/16 A3037 RMK VCFG/W/E

Time: 11:47 (16:47 UTC)


TAF: missing

Weather observations and forecasts of more than 4000 airports (METAR and TAF reports).

The available stations are represented by yellow and red dots on the map.

Hover mouse over dot to see the name of the station.

Then click to see weather observations and forecasts.

To change the map : click on the green buttons with a black cross to zoom in, on the green button with a dash to zoom out, or on the green arrows for adjacent maps.


METAR-TAF: